createdAt,value
2019-01-23T00:01:20.795Z,8.70
2019-01-23T00:04:11.426Z,4.50
2019-01-23T00:07:01.948Z,6.03
2019-01-23T00:09:52.351Z,5.47
2019-01-23T00:12:42.980Z,5.50
2019-01-23T00:15:33.561Z,5.83
2019-01-23T00:18:24.009Z,5.33
2019-01-23T00:21:14.498Z,4.70
2019-01-23T00:24:04.592Z,7.40
2019-01-23T00:26:55.024Z,7.13
2019-01-23T00:29:45.486Z,4.93
2019-01-23T00:32:35.735Z,5.03
2019-01-23T00:35:26.199Z,6.90
2019-01-23T00:38:16.575Z,5.00
2019-01-23T00:41:07.095Z,7.03
2019-01-23T00:43:57.284Z,5.30
2019-01-23T00:46:47.620Z,8.30
2019-01-23T00:49:38.155Z,5.50
2019-01-23T00:52:28.609Z,8.83
2019-01-23T00:55:19.543Z,9.17
2019-01-23T00:58:10.009Z,6.67
2019-01-23T01:01:00.157Z,7.57
2019-01-23T01:03:50.341Z,4.87
2019-01-23T01:06:40.811Z,8.60
2019-01-23T01:09:31.366Z,4.33
2019-01-23T01:12:21.916Z,7.70
2019-01-23T01:15:13.558Z,4.77
2019-01-23T01:18:04.302Z,5.93
2019-01-23T01:20:54.791Z,4.93
2019-01-23T01:23:45.397Z,9.83
2019-01-23T01:26:35.962Z,7.87
2019-01-23T01:29:26.292Z,9.47
2019-01-23T01:32:16.800Z,6.23
2019-01-23T01:35:07.297Z,7.90
2019-01-23T01:37:57.575Z,8.63
2019-01-23T01:40:47.851Z,6.17
2019-01-23T01:43:38.157Z,4.60
2019-01-23T01:46:28.582Z,5.20
2019-01-23T01:49:19.030Z,6.00
2019-01-23T01:52:09.635Z,5.97
2019-01-23T01:55:00.363Z,4.47
2019-01-23T01:57:54.018Z,5.40
2019-01-23T02:00:44.700Z,4.67
2019-01-23T02:03:34.990Z,3.80
2019-01-23T02:06:25.200Z,3.77
2019-01-23T02:09:15.700Z,6.57
2019-01-23T02:12:06.068Z,4.13
2019-01-23T02:14:56.490Z,6.03
2019-01-23T02:17:46.993Z,7.73
2019-01-23T02:20:38.393Z,6.23
2019-01-23T02:23:28.994Z,4.40
2019-01-23T02:26:19.440Z,4.40
2019-01-23T02:29:09.843Z,3.40
2019-01-23T02:32:00.402Z,6.80
2019-01-23T02:34:51.369Z,4.03
2019-01-23T02:37:41.871Z,3.93
2019-01-23T02:40:35.096Z,4.13
2019-01-23T02:43:25.749Z,5.73
2019-01-23T02:46:16.439Z,4.77
2019-01-23T02:49:06.865Z,4.20
2019-01-23T02:51:57.296Z,7.07
2019-01-23T02:54:47.788Z,6.50
2019-01-23T02:57:38.290Z,4.33
2019-01-23T03:00:28.953Z,3.53
2019-01-23T03:03:19.472Z,5.20
2019-01-23T03:06:09.888Z,4.33
2019-01-23T03:09:00.468Z,3.47
2019-01-23T03:11:52.293Z,5.30
2019-01-23T03:14:42.879Z,3.10
2019-01-23T03:17:33.601Z,7.27
2019-01-23T03:20:24.190Z,4.00
2019-01-23T03:23:14.588Z,6.13
2019-01-23T03:26:06.157Z,5.27
2019-01-23T03:28:56.308Z,5.07
2019-01-23T03:31:46.479Z,5.47
2019-01-23T03:34:36.867Z,7.00
2019-01-23T03:37:27.384Z,5.83
2019-01-23T03:40:19.564Z,4.10
2019-01-23T03:43:10.122Z,6.17
2019-01-23T03:46:00.346Z,4.80
2019-01-23T03:48:50.674Z,2.93
2019-01-23T03:51:41.453Z,5.37
2019-01-23T03:54:31.878Z,8.03
2019-01-23T03:57:22.243Z,7.07
2019-01-23T04:00:14.722Z,5.73
2019-01-23T04:03:05.364Z,6.67
2019-01-23T04:05:55.533Z,7.53
2019-01-23T04:08:45.862Z,7.53
2019-01-23T04:11:36.314Z,8.40
2019-01-23T04:14:26.572Z,8.07
2019-01-23T04:17:17.032Z,9.87
2019-01-23T04:20:10.988Z,11.33
2019-01-23T04:23:01.273Z,7.67
2019-01-23T04:25:51.454Z,8.87
2019-01-23T04:28:41.979Z,7.33
2019-01-23T04:31:32.597Z,10.43
2019-01-23T04:34:23.348Z,10.70
2019-01-23T04:37:14.011Z,8.50
2019-01-23T04:40:04.557Z,12.00
2019-01-23T04:42:54.851Z,7.23
2019-01-23T04:45:45.061Z,9.43
2019-01-23T04:48:35.243Z,9.63
2019-01-23T04:51:44.548Z,11.87
2019-01-23T04:54:34.878Z,8.63
2019-01-23T04:57:25.432Z,8.20
2019-01-23T05:00:19.362Z,6.87
2019-01-23T05:03:09.617Z,9.43
2019-01-23T05:06:00.065Z,11.27
2019-01-23T05:08:50.654Z,11.63
2019-01-23T05:11:41.111Z,15.70
2019-01-23T05:14:31.541Z,12.50
2019-01-23T05:17:26.065Z,17.13
2019-01-23T05:20:17.883Z,9.03
2019-01-23T05:23:08.368Z,14.37
2019-01-23T05:25:58.983Z,9.13
2019-01-23T05:28:49.587Z,10.83
2019-01-23T05:31:40.327Z,12.83
2019-01-23T05:34:30.805Z,11.10
2019-01-23T05:37:21.379Z,16.90
2019-01-23T05:40:11.971Z,13.37
2019-01-23T05:43:02.380Z,8.53
2019-01-23T05:45:52.819Z,12.73
2019-01-23T05:48:43.261Z,10.37
2019-01-23T05:51:33.522Z,12.13
2019-01-23T05:54:24.541Z,9.67
2019-01-23T05:57:15.064Z,9.53
2019-01-23T06:00:06.821Z,10.53
2019-01-23T06:02:57.320Z,10.70
2019-01-23T06:05:48.364Z,10.60
2019-01-23T06:08:38.997Z,10.33
2019-01-23T06:11:29.641Z,13.30
2019-01-23T06:14:20.132Z,10.00
2019-01-23T06:17:11.777Z,8.67
2019-01-23T06:20:01.931Z,8.33
2019-01-23T06:22:52.505Z,6.27
2019-01-23T06:25:43.055Z,6.70
2019-01-23T06:28:33.487Z,8.83
2019-01-23T06:31:24.020Z,7.80
2019-01-23T06:34:14.482Z,6.73
2019-01-23T06:37:04.652Z,6.13
2019-01-23T06:39:55.246Z,4.80
2019-01-23T06:42:45.524Z,6.17
2019-01-23T06:45:36.136Z,6.63
2019-01-23T06:48:26.667Z,5.43
2019-01-23T06:51:17.192Z,4.37
2019-01-23T06:54:07.498Z,12.63
2019-01-23T06:56:58.170Z,7.37
2019-01-23T06:59:48.616Z,5.37
2019-01-23T07:02:39.096Z,7.83
2019-01-23T07:05:29.481Z,8.00
2019-01-23T07:08:20.024Z,5.97
2019-01-23T07:11:10.463Z,5.30
2019-01-23T07:14:01.232Z,7.83
2019-01-23T07:16:51.890Z,7.27
2019-01-23T07:19:42.408Z,7.57
2019-01-23T07:22:33.018Z,4.13
2019-01-23T07:25:23.455Z,3.23
2019-01-23T07:28:16.591Z,5.50
2019-01-23T07:31:06.812Z,8.63
2019-01-23T07:33:56.859Z,5.03
2019-01-23T07:36:47.401Z,6.10
2019-01-23T07:39:37.971Z,4.37
2019-01-23T07:42:28.386Z,5.53
2019-01-23T07:45:19.356Z,6.93
2019-01-23T07:48:09.623Z,9.13
2019-01-23T07:51:00.261Z,5.43
2019-01-23T07:53:55.154Z,8.17
2019-01-23T07:56:48.422Z,4.70
2019-01-23T07:59:39.050Z,7.03
2019-01-23T08:02:29.562Z,7.57
2019-01-23T08:05:22.243Z,4.70
2019-01-23T08:08:12.655Z,4.67
2019-01-23T08:11:03.546Z,8.97
2019-01-23T08:13:54.238Z,5.83
2019-01-23T08:16:45.679Z,7.73
2019-01-23T08:19:36.260Z,4.63
2019-01-23T08:22:26.899Z,5.73
2019-01-23T08:25:17.475Z,8.73
2019-01-23T08:28:07.716Z,3.50
2019-01-23T08:30:58.216Z,3.30
2019-01-23T08:33:48.666Z,6.37
2019-01-23T08:36:39.141Z,3.07
2019-01-23T08:39:29.304Z,5.87
2019-01-23T08:42:19.847Z,6.10
2019-01-23T08:45:11.023Z,5.07
2019-01-23T08:48:01.659Z,2.50
2019-01-23T08:50:52.724Z,3.03
2019-01-23T08:53:43.478Z,3.50
2019-01-23T08:56:33.740Z,2.10
2019-01-23T08:59:23.959Z,3.50
2019-01-23T09:02:14.145Z,8.67
2019-01-23T09:05:04.578Z,4.60
2019-01-23T09:07:54.824Z,3.30
2019-01-23T09:10:45.040Z,3.70
2019-01-23T09:13:35.591Z,3.33
2019-01-23T09:16:25.987Z,2.90
2019-01-23T09:19:16.606Z,2.53
2019-01-23T09:22:07.315Z,2.80
2019-01-23T09:24:57.988Z,2.50
2019-01-23T09:27:48.347Z,3.43
2019-01-23T09:31:00.359Z,3.03
2019-01-23T09:34:15.592Z,3.33
2019-01-23T09:37:48.679Z,3.63
2019-01-23T09:40:55.480Z,4.47
2019-01-23T09:44:15.970Z,3.63
2019-01-23T09:47:37.418Z,3.47
2019-01-23T09:51:11.716Z,3.33
2019-01-23T09:54:12.684Z,3.93
2019-01-23T09:57:03.031Z,1.70
2019-01-23T09:59:53.640Z,1.83
2019-01-23T10:02:45.618Z,6.67
2019-01-23T10:05:37.252Z,4.03
2019-01-23T10:08:27.794Z,2.93
2019-01-23T10:11:17.972Z,4.93
2019-01-23T10:14:08.898Z,6.90
2019-01-23T10:16:59.031Z,5.00
2019-01-23T10:19:49.817Z,3.77
2019-01-23T10:22:40.047Z,3.90
2019-01-23T10:25:31.025Z,4.90
2019-01-23T10:28:21.413Z,3.73
2019-01-23T10:31:11.907Z,4.53
2019-01-23T10:34:02.406Z,5.40
2019-01-23T10:36:53.117Z,2.13
2019-01-23T10:39:43.595Z,3.80
2019-01-23T10:42:34.041Z,1.60
2019-01-23T10:45:24.339Z,6.57
2019-01-23T10:48:15.141Z,3.60
2019-01-23T10:51:05.340Z,6.37
2019-01-23T10:53:56.184Z,3.70
2019-01-23T10:56:46.725Z,2.83
2019-01-23T10:59:37.436Z,6.30
2019-01-23T11:02:27.971Z,7.27
2019-01-23T11:05:20.428Z,5.70
2019-01-23T11:08:10.731Z,4.43
2019-01-23T11:11:01.299Z,6.80
2019-01-23T11:13:51.620Z,9.50
2019-01-23T11:16:42.571Z,5.90
2019-01-23T11:19:33.231Z,6.80
2019-01-23T11:22:23.783Z,7.60
2019-01-23T11:25:14.341Z,6.33
2019-01-23T11:28:04.735Z,4.87
2019-01-23T11:30:55.071Z,8.70
2019-01-23T11:33:45.629Z,8.87
2019-01-23T11:36:36.087Z,7.70
2019-01-23T11:39:26.532Z,9.73
2019-01-23T11:42:16.990Z,6.83
2019-01-23T11:45:09.032Z,6.77
2019-01-23T11:47:59.608Z,4.60
2019-01-23T11:50:50.360Z,10.23
2019-01-23T11:53:41.125Z,11.67
2019-01-23T11:56:31.865Z,10.40
2019-01-23T11:59:22.075Z,7.30
2019-01-23T12:02:12.642Z,9.07
2019-01-23T12:05:03.133Z,7.97
2019-01-23T12:07:53.722Z,12.03
2019-01-23T12:10:44.294Z,11.60
2019-01-23T12:13:34.883Z,7.97
2019-01-23T12:16:25.168Z,13.43
2019-01-23T12:19:15.859Z,10.97
2019-01-23T12:22:06.470Z,11.87
2019-01-23T12:24:57.848Z,11.33
2019-01-23T12:27:48.512Z,9.13
2019-01-23T12:30:41.660Z,9.37
2019-01-23T12:33:32.032Z,13.07
2019-01-23T12:36:22.848Z,9.03
2019-01-23T12:39:13.372Z,11.20
2019-01-23T12:42:03.750Z,9.70
2019-01-23T12:44:57.074Z,12.43
2019-01-23T12:47:47.384Z,10.07
2019-01-23T12:50:37.950Z,13.87
2019-01-23T12:53:31.115Z,7.80
2019-01-23T12:56:21.407Z,11.47
2019-01-23T12:59:11.960Z,9.73
2019-01-23T13:02:02.493Z,14.03
2019-01-23T13:04:52.858Z,15.00
2019-01-23T13:07:43.438Z,19.40
2019-01-23T13:10:34.040Z,13.57
2019-01-23T13:13:24.472Z,11.37
2019-01-23T13:16:14.877Z,17.13
2019-01-23T13:19:05.258Z,12.13
2019-01-23T13:21:56.099Z,19.63
2019-01-23T13:24:46.477Z,15.13
2019-01-23T13:27:36.800Z,18.57
2019-01-23T13:30:27.284Z,16.77
2019-01-23T13:33:19.853Z,13.90
2019-01-23T13:36:10.967Z,12.57
2019-01-23T13:39:01.332Z,8.33
2019-01-23T13:41:53.250Z,11.47
2019-01-23T13:44:45.518Z,13.30
2019-01-23T13:47:35.684Z,8.13
2019-01-23T13:50:26.206Z,8.73
2019-01-23T13:53:16.462Z,8.10
2019-01-23T13:56:07.163Z,9.63
2019-01-23T13:58:57.760Z,13.53
2019-01-23T14:01:48.304Z,16.63
2019-01-23T14:04:39.005Z,13.93
2019-01-23T14:07:29.206Z,12.17
2019-01-23T14:10:22.569Z,13.87
2019-01-23T14:13:13.216Z,17.97
2019-01-23T14:16:03.673Z,18.93
2019-01-23T14:18:55.371Z,9.97
2019-01-23T14:21:45.593Z,14.70
2019-01-23T14:24:38.958Z,16.53
2019-01-23T14:27:29.221Z,21.53
2019-01-23T14:30:25.925Z,18.50
2019-01-23T14:33:16.511Z,20.23
2019-01-23T14:36:07.052Z,14.23
2019-01-23T14:38:57.477Z,18.10
2019-01-23T14:41:47.945Z,9.70
2019-01-23T14:44:38.425Z,11.10
2019-01-23T14:47:28.737Z,13.47
2019-01-23T14:50:19.238Z,10.43
2019-01-23T14:53:09.585Z,16.83
2019-01-23T14:55:59.891Z,16.47
2019-01-23T14:58:50.642Z,11.73
2019-01-23T15:01:41.306Z,14.00
2019-01-23T15:04:32.879Z,18.60
2019-01-23T15:07:23.191Z,22.13
2019-01-23T15:10:17.126Z,19.73
2019-01-23T15:13:07.521Z,20.23
2019-01-23T15:15:58.181Z,20.83
2019-01-23T15:18:48.579Z,15.47
2019-01-23T15:21:38.853Z,13.13
2019-01-23T15:24:29.287Z,14.73
2019-01-23T15:27:20.354Z,19.43
2019-01-23T15:30:11.981Z,14.73
2019-01-23T15:33:02.486Z,20.23
2019-01-23T15:35:52.886Z,16.13
2019-01-23T15:38:43.229Z,15.37
2019-01-23T15:41:34.763Z,14.50
2019-01-23T15:44:25.439Z,11.20
2019-01-23T15:47:15.932Z,16.00
2019-01-23T15:50:08.073Z,15.47
2019-01-23T15:52:58.776Z,17.63
2019-01-23T15:55:49.324Z,11.63
2019-01-23T15:58:39.839Z,20.83
2019-01-23T16:01:30.201Z,20.93
2019-01-23T16:04:20.734Z,23.43
2019-01-23T16:07:11.207Z,17.10
2019-01-23T16:10:02.483Z,19.77
2019-01-23T16:12:53.028Z,19.47
2019-01-23T16:15:43.445Z,19.00
2019-01-23T16:18:33.971Z,18.87
2019-01-23T16:21:24.371Z,7.57
2019-01-23T16:24:15.307Z,14.07
2019-01-23T16:27:05.978Z,16.57
2019-01-23T16:29:57.757Z,21.00
2019-01-23T16:32:50.137Z,25.60
2019-01-23T16:35:42.420Z,27.17
2019-01-23T16:38:34.107Z,30.43
2019-01-23T16:41:24.923Z,21.20
2019-01-23T16:44:15.409Z,19.70
2019-01-23T16:47:05.642Z,18.23
2019-01-23T16:49:56.863Z,21.23
2019-01-23T16:52:48.070Z,23.87
2019-01-23T16:55:38.529Z,20.27
2019-01-23T16:58:29.142Z,16.37
2019-01-23T17:01:19.582Z,21.57
2019-01-23T17:04:09.780Z,21.63
2019-01-23T17:07:00.104Z,21.03
2019-01-23T17:09:50.931Z,27.27
2019-01-23T17:12:41.489Z,21.87
2019-01-23T17:15:32.529Z,21.13
2019-01-23T17:18:23.214Z,25.20
2019-01-23T17:21:13.499Z,18.37
2019-01-23T17:24:03.989Z,20.13
2019-01-23T17:26:54.550Z,17.37
2019-01-23T17:29:44.981Z,20.23
2019-01-23T17:32:35.692Z,15.37
2019-01-23T17:35:25.928Z,25.37
2019-01-23T17:38:16.236Z,21.43
2019-01-23T17:41:09.444Z,16.13
2019-01-23T17:44:00.030Z,19.57
2019-01-23T17:46:50.680Z,21.57
2019-01-23T17:49:41.307Z,21.17
2019-01-23T17:52:32.015Z,20.00
2019-01-23T17:55:42.218Z,18.27
2019-01-23T17:58:32.448Z,23.77
2019-01-23T18:01:23.603Z,15.03
2019-01-23T18:04:14.087Z,17.27
2019-01-23T18:07:04.668Z,22.27
2019-01-23T18:09:55.133Z,17.67
2019-01-23T18:12:46.117Z,18.13
2019-01-23T18:15:36.962Z,19.47
2019-01-23T18:18:27.497Z,15.93
2019-01-23T18:21:17.736Z,19.33
2019-01-23T18:24:08.617Z,20.10
2019-01-23T18:26:59.230Z,13.03
2019-01-23T18:29:49.754Z,18.97
2019-01-23T18:32:40.148Z,15.77
2019-01-23T18:36:05.419Z,20.67
2019-01-23T18:39:20.611Z,15.00
2019-01-23T18:42:54.726Z,19.90
2019-01-23T18:46:09.244Z,19.37
2019-01-23T18:49:39.840Z,20.83
2019-01-23T18:52:30.240Z,14.73
2019-01-23T18:55:22.951Z,13.23
2019-01-23T18:58:13.153Z,14.13
2019-01-23T19:01:04.054Z,19.30
2019-01-23T19:03:54.689Z,20.43
2019-01-23T19:06:47.145Z,15.57
2019-01-23T19:09:37.671Z,17.80
2019-01-23T19:12:28.528Z,17.00
2019-01-23T19:15:19.862Z,22.23
2019-01-23T19:18:10.459Z,17.83
2019-01-23T19:21:01.187Z,20.47
2019-01-23T19:23:54.140Z,14.90
2019-01-23T19:26:44.400Z,15.57
2019-01-23T19:29:34.938Z,19.67
2019-01-23T19:32:25.213Z,25.77
2019-01-23T19:35:16.088Z,16.20
2019-01-23T19:38:08.835Z,16.87
2019-01-23T19:40:59.205Z,14.17
2019-01-23T19:43:49.774Z,20.37
2019-01-23T19:46:40.487Z,15.57
2019-01-23T19:49:30.911Z,16.27
2019-01-23T19:52:21.331Z,14.57
2019-01-23T19:55:13.302Z,20.87
2019-01-23T19:58:04.620Z,19.83
2019-01-23T20:00:55.383Z,18.97
2019-01-23T20:03:46.006Z,21.50
2019-01-23T20:06:40.196Z,19.80
2019-01-23T20:09:30.715Z,15.13
2019-01-23T20:12:21.398Z,12.93
2019-01-23T20:15:13.835Z,11.47
2019-01-23T20:18:09.048Z,12.03
2019-01-23T20:20:59.465Z,19.30
2019-01-23T20:23:50.025Z,16.50
2019-01-23T20:26:40.960Z,11.93
2019-01-23T20:29:31.326Z,14.90
2019-01-23T20:32:21.953Z,13.50
2019-01-23T20:35:12.129Z,14.13
2019-01-23T20:38:02.445Z,18.73
2019-01-23T20:40:52.929Z,22.93
2019-01-23T20:43:43.496Z,20.67
2019-01-23T20:46:33.774Z,27.70
2019-01-23T20:49:24.416Z,23.10
2019-01-23T20:52:14.843Z,19.97
2019-01-23T20:55:05.584Z,29.23
2019-01-23T20:57:56.162Z,20.53
2019-01-23T21:00:46.696Z,26.57
2019-01-23T21:03:37.529Z,26.30
2019-01-23T21:06:28.217Z,23.23
2019-01-23T21:09:19.794Z,25.23
2019-01-23T21:12:10.065Z,23.23
2019-01-23T21:15:00.638Z,20.63
2019-01-23T21:17:50.899Z,27.90
2019-01-23T21:20:42.849Z,18.90
2019-01-23T21:23:33.517Z,22.10
2019-01-23T21:26:23.977Z,25.30
2019-01-23T21:29:14.531Z,21.73
2019-01-23T21:32:04.923Z,25.23
2019-01-23T21:34:56.150Z,27.03
2019-01-23T21:37:46.820Z,18.53
2019-01-23T21:40:38.314Z,27.37
2019-01-23T21:43:29.000Z,29.33
2019-01-23T21:46:19.428Z,21.20
2019-01-23T21:49:09.525Z,19.07
2019-01-23T21:52:00.075Z,24.67
2019-01-23T21:54:50.591Z,24.63
2019-01-23T21:57:41.359Z,20.63
2019-01-23T22:00:43.843Z,22.47
2019-01-23T22:03:34.675Z,24.97
2019-01-23T22:06:25.439Z,18.17
2019-01-23T22:09:16.571Z,22.57
2019-01-23T22:12:07.324Z,19.67
2019-01-23T22:14:58.140Z,19.03
2019-01-23T22:17:48.592Z,12.27
2019-01-23T22:20:39.886Z,13.07
2019-01-23T22:23:30.348Z,11.60
2019-01-23T22:26:20.976Z,12.47
2019-01-23T22:29:11.217Z,12.27
2019-01-23T22:32:01.475Z,10.53
2019-01-23T22:34:51.718Z,14.37
2019-01-23T22:37:41.992Z,15.17
2019-01-23T22:40:32.662Z,16.10
2019-01-23T22:43:23.630Z,22.43
2019-01-23T22:46:14.312Z,24.97
2019-01-23T22:49:04.797Z,17.30
2019-01-23T22:51:54.988Z,21.43
2019-01-23T22:54:45.419Z,15.93
2019-01-23T22:57:35.985Z,18.17
2019-01-23T23:00:42.630Z,17.07
2019-01-23T23:03:33.051Z,17.30
2019-01-23T23:06:23.514Z,20.80
2019-01-23T23:09:14.111Z,16.10
2019-01-23T23:12:04.639Z,13.10
2019-01-23T23:14:55.184Z,12.13
2019-01-23T23:17:46.221Z,10.80
2019-01-23T23:20:36.888Z,8.57
2019-01-23T23:23:27.579Z,6.20
2019-01-23T23:26:18.024Z,10.17
2019-01-23T23:29:08.568Z,6.67
2019-01-23T23:31:59.069Z,8.07
2019-01-23T23:34:49.979Z,12.00
2019-01-23T23:37:40.637Z,6.83
2019-01-23T23:40:31.268Z,7.33
2019-01-23T23:43:24.310Z,9.17
2019-01-23T23:46:14.604Z,12.60
2019-01-23T23:49:04.844Z,6.17
2019-01-23T23:51:55.484Z,7.70
2019-01-23T23:54:46.080Z,11.77
2019-01-23T23:57:36.649Z,10.97
